createdAt,value
2019-02-06T00:02:00.356Z,14.63
2019-02-06T00:04:28.764Z,13.73
2019-02-06T00:06:57.220Z,17.80
2019-02-06T00:09:25.690Z,14.20
2019-02-06T00:11:54.248Z,15.63
2019-02-06T00:14:32.430Z,13.93
2019-02-06T00:17:01.555Z,17.93
2019-02-06T00:19:30.382Z,17.13
2019-02-06T00:21:59.217Z,16.27
2019-02-06T00:24:28.150Z,17.30
2019-02-06T00:26:56.531Z,11.93
2019-02-06T00:29:25.287Z,18.43
2019-02-06T00:31:53.702Z,16.77
2019-02-06T00:34:43.136Z,17.17
2019-02-06T00:37:11.707Z,19.10
2019-02-06T00:39:40.136Z,15.97
2019-02-06T00:42:08.595Z,19.30
2019-02-06T00:44:37.454Z,15.33
2019-02-06T00:47:06.037Z,12.67
2019-02-06T00:49:34.644Z,16.90
2019-02-06T00:52:03.202Z,18.87
2019-02-06T00:54:31.807Z,15.43
2019-02-06T00:57:00.431Z,20.67
2019-02-06T00:59:29.322Z,13.20
2019-02-06T01:01:57.806Z,14.60
2019-02-06T01:04:26.422Z,19.00
2019-02-06T01:06:54.892Z,13.23
2019-02-06T01:09:23.421Z,16.10
2019-02-06T01:11:51.896Z,15.00
2019-02-06T01:14:20.428Z,17.37
2019-02-06T01:16:49.341Z,17.37
2019-02-06T01:19:18.044Z,18.17
2019-02-06T01:21:46.575Z,14.70
2019-02-06T01:24:15.033Z,16.60
2019-02-06T01:26:43.746Z,18.70
2019-02-06T01:29:12.214Z,17.23
2019-02-06T01:31:40.731Z,13.67
2019-02-06T01:34:09.612Z,19.13
2019-02-06T01:36:38.059Z,15.13
2019-02-06T01:39:11.480Z,15.30
2019-02-06T01:41:39.963Z,18.33
2019-02-06T01:44:08.457Z,19.13
2019-02-06T01:46:37.244Z,17.47
2019-02-06T01:49:06.003Z,16.47
2019-02-06T01:51:34.581Z,17.97
2019-02-06T01:54:03.231Z,20.70
2019-02-06T01:56:31.972Z,15.83
2019-02-06T01:59:00.574Z,14.90
2019-02-06T02:01:29.432Z,12.80
2019-02-06T02:03:58.157Z,17.30
2019-02-06T02:06:26.521Z,16.00
2019-02-06T02:08:57.271Z,15.97
2019-02-06T02:11:25.838Z,11.93
2019-02-06T02:13:54.302Z,17.27
2019-02-06T02:16:22.901Z,17.50
2019-02-06T02:18:51.447Z,14.03
2019-02-06T02:21:20.383Z,13.70
2019-02-06T02:23:48.864Z,13.13
2019-02-06T02:26:17.175Z,15.83
2019-02-06T02:28:45.575Z,17.60
2019-02-06T02:31:14.398Z,19.53
2019-02-06T02:33:42.730Z,17.17
2019-02-06T02:36:15.846Z,17.73
2019-02-06T02:38:41.554Z,17.00
2019-02-06T02:41:09.857Z,12.33
2019-02-06T02:43:38.543Z,13.47
2019-02-06T02:46:07.430Z,13.03
2019-02-06T02:48:35.912Z,16.67
2019-02-06T02:51:04.669Z,14.87
2019-02-06T02:53:33.691Z,16.67
2019-02-06T02:56:02.262Z,16.57
2019-02-06T02:58:30.663Z,15.63
2019-02-06T03:01:36.611Z,18.17
2019-02-06T03:04:16.663Z,19.63
2019-02-06T03:06:45.302Z,11.17
2019-02-06T03:09:13.829Z,15.73
2019-02-06T03:11:42.392Z,10.67
2019-02-06T03:14:11.249Z,16.47
2019-02-06T03:16:39.755Z,12.00
2019-02-06T03:19:08.199Z,16.97
2019-02-06T03:21:36.954Z,16.00
2019-02-06T03:24:05.524Z,15.90
2019-02-06T03:26:33.958Z,17.50
2019-02-06T03:29:02.666Z,19.33
2019-02-06T03:31:31.293Z,18.17
2019-02-06T03:33:59.760Z,14.43
2019-02-06T03:36:39.567Z,15.13
2019-02-06T03:38:58.754Z,13.67
2019-02-06T03:41:27.426Z,14.80
2019-02-06T03:43:55.979Z,17.40
2019-02-06T03:46:24.897Z,12.17
2019-02-06T03:48:53.366Z,16.93
2019-02-06T03:51:21.854Z,16.50
2019-02-06T03:53:50.551Z,14.27
2019-02-06T03:56:19.006Z,19.77
2019-02-06T03:58:47.458Z,19.80
2019-02-06T04:01:15.982Z,18.03
2019-02-06T04:03:44.747Z,16.40
2019-02-06T04:06:13.485Z,17.20
2019-02-06T04:08:42.021Z,17.33
2019-02-06T04:11:10.549Z,18.87
2019-02-06T04:13:39.202Z,16.77
2019-02-06T04:16:07.682Z,16.73
2019-02-06T04:18:36.098Z,14.97
2019-02-06T04:21:04.624Z,15.17
2019-02-06T04:23:33.020Z,15.37
2019-02-06T04:26:01.635Z,15.23
2019-02-06T04:28:30.217Z,17.50
2019-02-06T04:30:58.598Z,18.10
2019-02-06T04:33:27.182Z,14.97
2019-02-06T04:35:56.130Z,12.60
2019-02-06T04:38:24.653Z,14.60
2019-02-06T04:40:53.180Z,19.17
2019-02-06T04:43:22.895Z,16.77
2019-02-06T04:45:51.282Z,18.40
2019-02-06T04:48:19.802Z,17.60
2019-02-06T04:50:48.343Z,14.27
2019-02-06T04:53:16.827Z,17.43
2019-02-06T04:55:45.450Z,15.03
2019-02-06T04:58:14.088Z,15.27
2019-02-06T05:00:42.456Z,15.27
2019-02-06T05:03:10.994Z,13.80
2019-02-06T05:05:39.663Z,12.37
2019-02-06T05:08:08.773Z,17.33
2019-02-06T05:10:37.232Z,15.03
2019-02-06T05:13:06.043Z,16.07
2019-02-06T05:15:34.478Z,17.70
2019-02-06T05:18:02.975Z,17.40
2019-02-06T05:20:37.575Z,18.10
2019-02-06T05:23:07.742Z,21.50
2019-02-06T05:25:36.189Z,18.67
2019-02-06T05:28:05.449Z,21.03
2019-02-06T05:30:34.047Z,19.17
2019-02-06T05:33:02.531Z,16.10
2019-02-06T05:35:31.065Z,17.47
2019-02-06T05:38:00.232Z,17.47
2019-02-06T05:40:29.051Z,18.57
2019-02-06T05:42:58.807Z,12.87
2019-02-06T05:45:27.308Z,16.80
2019-02-06T05:47:55.825Z,18.03
2019-02-06T05:50:24.538Z,21.77
2019-02-06T05:52:52.987Z,20.70
2019-02-06T05:55:21.660Z,18.63
2019-02-06T05:57:50.115Z,17.47
2019-02-06T06:00:26.120Z,19.50
2019-02-06T06:02:54.697Z,16.93
2019-02-06T06:05:23.197Z,20.13
2019-02-06T06:07:51.860Z,23.20
2019-02-06T06:10:20.542Z,24.40
2019-02-06T06:12:49.282Z,22.63
2019-02-06T06:15:18.604Z,22.93
2019-02-06T06:17:47.500Z,22.83
2019-02-06T06:20:16.922Z,22.77
2019-02-06T06:22:45.315Z,23.77
2019-02-06T06:25:14.755Z,31.73
2019-02-06T06:27:43.796Z,35.03
2019-02-06T06:30:14.534Z,42.20
2019-02-06T06:32:43.201Z,29.80
2019-02-06T06:35:11.924Z,34.40
2019-02-06T06:37:41.512Z,37.53
2019-02-06T06:40:13.313Z,40.00
2019-02-06T06:42:42.157Z,36.97
2019-02-06T06:45:30.091Z,44.53
2019-02-06T06:47:58.672Z,46.20
2019-02-06T06:50:27.172Z,40.50
2019-02-06T06:52:56.734Z,38.43
2019-02-06T06:55:25.368Z,42.43
2019-02-06T06:57:53.926Z,28.43
2019-02-06T07:00:24.674Z,33.40
2019-02-06T07:02:52.806Z,31.27
2019-02-06T07:05:21.518Z,36.03
2019-02-06T07:07:52.009Z,32.83
2019-02-06T07:10:21.320Z,34.83
2019-02-06T07:12:49.722Z,32.13
2019-02-06T07:15:20.306Z,32.33
2019-02-06T07:17:48.620Z,27.10
2019-02-06T07:20:17.472Z,31.67
2019-02-06T07:22:45.998Z,26.50
2019-02-06T07:25:16.142Z,28.33
2019-02-06T07:27:44.413Z,27.57
2019-02-06T07:30:18.771Z,27.77
2019-02-06T07:32:46.929Z,22.70
2019-02-06T07:35:15.179Z,26.00
2019-02-06T07:37:43.482Z,25.17
2019-02-06T07:40:11.829Z,25.97
2019-02-06T07:42:39.921Z,27.97
2019-02-06T07:45:09.226Z,30.77
2019-02-06T07:47:37.303Z,31.80
2019-02-06T07:50:07.939Z,27.37
2019-02-06T07:52:36.169Z,28.63
2019-02-06T07:55:05.411Z,28.27
2019-02-06T07:57:34.557Z,28.40
2019-02-06T08:00:04.468Z,27.97
2019-02-06T08:02:34.385Z,31.67
2019-02-06T08:05:03.529Z,35.20
2019-02-06T08:07:32.089Z,31.63
2019-02-06T08:10:00.746Z,29.70
2019-02-06T08:12:29.317Z,28.80
2019-02-06T08:14:57.800Z,26.00
2019-02-06T08:17:26.494Z,23.10
2019-02-06T08:19:55.181Z,27.17
2019-02-06T08:22:23.867Z,34.47
2019-02-06T08:24:52.579Z,39.37
2019-02-06T08:27:21.063Z,32.20
2019-02-06T08:29:49.849Z,34.73
2019-02-06T08:32:18.438Z,27.13
2019-02-06T08:34:46.982Z,33.20
2019-02-06T08:37:15.168Z,27.43
2019-02-06T08:39:43.689Z,25.07
2019-02-06T08:42:11.734Z,26.80
2019-02-06T08:44:40.180Z,20.97
2019-02-06T08:47:08.306Z,21.80
2019-02-06T08:49:36.372Z,24.83
2019-02-06T08:52:04.810Z,26.77
2019-02-06T08:54:33.712Z,24.43
2019-02-06T08:57:02.283Z,20.67
2019-02-06T08:59:30.947Z,21.10
2019-02-06T09:01:59.960Z,22.30
2019-02-06T09:04:28.497Z,21.73
2019-02-06T09:06:57.024Z,22.97
2019-02-06T09:09:25.503Z,21.10
2019-02-06T09:11:54.067Z,18.03
2019-02-06T09:14:22.912Z,14.63
2019-02-06T09:16:51.353Z,17.67
2019-02-06T09:19:19.834Z,18.43
2019-02-06T09:21:48.455Z,20.07
2019-02-06T09:24:16.867Z,16.73
2019-02-06T09:26:45.379Z,17.03
2019-02-06T09:29:14.148Z,18.37
2019-02-06T09:31:42.527Z,17.93
2019-02-06T09:34:11.639Z,15.33
2019-02-06T09:36:40.196Z,14.97
2019-02-06T09:39:11.901Z,13.97
2019-02-06T09:41:40.458Z,11.77
2019-02-06T09:44:08.710Z,17.20
2019-02-06T09:46:37.381Z,17.60
2019-02-06T09:49:05.680Z,16.43
2019-02-06T09:51:34.692Z,16.10
2019-02-06T09:54:03.373Z,15.27
2019-02-06T09:56:32.031Z,19.13
2019-02-06T09:59:00.796Z,16.83
2019-02-06T10:01:29.268Z,15.43
2019-02-06T10:03:57.881Z,13.40
2019-02-06T10:06:26.134Z,14.73
2019-02-06T10:08:54.515Z,18.53
2019-02-06T10:11:23.209Z,16.27
2019-02-06T10:13:54.132Z,17.00
2019-02-06T10:16:22.768Z,15.80
2019-02-06T10:18:51.523Z,12.70
2019-02-06T10:21:20.287Z,14.10
2019-02-06T10:23:48.644Z,14.33
2019-02-06T10:26:17.231Z,16.03
2019-02-06T10:28:45.784Z,12.90
2019-02-06T10:31:14.234Z,13.00
2019-02-06T10:33:42.747Z,17.93
2019-02-06T10:36:11.537Z,14.53
2019-02-06T10:38:39.975Z,15.23
2019-02-06T10:41:08.302Z,16.07
2019-02-06T10:43:36.849Z,20.40
2019-02-06T10:46:05.358Z,19.37
2019-02-06T10:48:33.534Z,13.77
2019-02-06T10:51:02.084Z,15.17
2019-02-06T10:53:30.334Z,16.43
2019-02-06T10:55:59.295Z,17.93
2019-02-06T10:58:28.137Z,16.83
2019-02-06T11:00:59.051Z,19.13
2019-02-06T11:03:27.500Z,19.73
2019-02-06T11:05:56.583Z,18.30
2019-02-06T11:08:25.344Z,14.73
2019-02-06T11:10:56.098Z,15.80
2019-02-06T11:13:24.620Z,12.03
2019-02-06T11:15:53.333Z,15.37
2019-02-06T11:18:22.017Z,16.80
2019-02-06T11:20:50.563Z,16.93
2019-02-06T11:36:24.594Z,16.83
2019-02-06T11:38:53.040Z,17.27
2019-02-06T11:41:21.519Z,17.27
2019-02-06T11:43:50.533Z,14.70
2019-02-06T11:46:19.027Z,14.40
2019-02-06T11:48:47.471Z,16.67
2019-02-06T11:51:16.313Z,12.07
2019-02-06T11:53:44.798Z,10.30
2019-02-06T11:56:13.159Z,15.10
2019-02-06T11:58:41.523Z,16.40
2019-02-06T12:01:38.136Z,10.53
2019-02-06T12:04:06.397Z,14.70
2019-02-06T12:06:34.799Z,19.53
2019-02-06T12:09:05.729Z,12.73
2019-02-06T12:11:33.847Z,14.80
2019-02-06T12:14:02.486Z,17.60
2019-02-06T12:16:31.709Z,12.53
2019-02-06T12:18:59.940Z,15.07
2019-02-06T12:21:28.118Z,10.30
2019-02-06T12:23:56.185Z,12.47
2019-02-06T12:26:24.784Z,13.07
2019-02-06T12:28:52.898Z,18.43
2019-02-06T12:31:21.338Z,12.87
2019-02-06T12:33:50.609Z,15.13
2019-02-06T12:36:19.191Z,13.70
2019-02-06T12:38:53.506Z,20.30
2019-02-06T12:41:18.049Z,15.97
2019-02-06T12:43:46.464Z,20.23
2019-02-06T12:46:14.985Z,12.47
2019-02-06T12:48:44.018Z,13.80
2019-02-06T12:51:12.568Z,12.80
2019-02-06T12:53:41.187Z,11.20
2019-02-06T12:56:09.942Z,19.63
2019-02-06T12:58:38.219Z,17.67
2019-02-06T13:01:07.152Z,18.83
2019-02-06T13:03:35.606Z,10.93
2019-02-06T13:06:04.347Z,14.23
2019-02-06T13:08:32.583Z,15.67
2019-02-06T13:11:00.988Z,13.87
2019-02-06T13:13:29.500Z,14.17
2019-02-06T13:15:58.183Z,11.07
2019-02-06T13:18:26.429Z,16.73
2019-02-06T13:20:54.583Z,17.63
2019-02-06T13:23:23.214Z,13.83
2019-02-06T13:25:51.556Z,18.20
2019-02-06T13:28:20.056Z,15.23
2019-02-06T13:30:48.555Z,13.70
2019-02-06T13:33:17.416Z,13.20
2019-02-06T13:35:45.899Z,19.30
2019-02-06T13:38:14.592Z,15.53
2019-02-06T13:40:45.823Z,19.50
2019-02-06T13:43:13.680Z,15.00
2019-02-06T13:45:44.211Z,14.80
2019-02-06T13:48:13.070Z,14.07
2019-02-06T13:50:41.925Z,15.20
2019-02-06T13:53:10.853Z,12.80
2019-02-06T13:55:39.604Z,10.30
2019-02-06T13:58:19.177Z,13.03
2019-02-06T14:00:39.880Z,15.67
2019-02-06T14:03:08.803Z,16.47
2019-02-06T14:05:37.738Z,17.63
2019-02-06T14:08:08.825Z,11.27
2019-02-06T14:10:37.551Z,14.13
2019-02-06T14:13:06.496Z,11.30
2019-02-06T14:15:37.449Z,15.57
2019-02-06T14:18:06.782Z,14.87
2019-02-06T14:20:35.434Z,13.70
2019-02-06T14:23:07.375Z,17.77
2019-02-06T14:25:57.207Z,21.63
2019-02-06T14:29:06.854Z,12.47
2019-02-06T14:32:32.258Z,15.13
2019-02-06T14:35:38.057Z,12.70
2019-02-06T14:38:56.884Z,20.87
2019-02-06T14:42:09.704Z,12.73
2019-02-06T14:45:33.769Z,14.13
2019-02-06T14:48:18.133Z,12.97
2019-02-06T14:50:56.659Z,17.20
2019-02-06T14:54:15.209Z,12.97
2019-02-06T14:57:37.554Z,14.67
2019-02-06T15:00:20.750Z,16.03
2019-02-06T15:03:27.521Z,10.40
2019-02-06T15:06:20.410Z,16.53
2019-02-06T15:09:36.710Z,14.80
2019-02-06T15:12:41.753Z,15.80
2019-02-06T15:15:46.511Z,17.97
2019-02-06T15:19:09.025Z,15.60
2019-02-06T15:22:13.859Z,14.40
2019-02-06T15:25:01.696Z,19.13
2019-02-06T15:27:57.619Z,20.23
2019-02-06T15:30:51.695Z,14.67
2019-02-06T15:33:53.534Z,15.57
2019-02-06T15:36:35.078Z,16.57
2019-02-06T15:39:41.310Z,19.60
2019-02-06T15:42:58.707Z,17.23
2019-02-06T15:45:37.119Z,11.60
2019-02-06T15:48:56.423Z,14.10
2019-02-06T15:52:01.563Z,15.00
2019-02-06T15:55:05.475Z,15.97
2019-02-06T15:58:01.830Z,17.03
2019-02-06T16:01:23.230Z,18.33
2019-02-06T16:04:44.220Z,18.77
2019-02-06T16:07:54.809Z,18.77
2019-02-06T16:11:03.346Z,17.53
2019-02-06T16:14:09.180Z,23.83
2019-02-06T16:17:34.392Z,25.60
2019-02-06T16:20:27.551Z,34.97
2019-02-06T16:23:13.821Z,22.80
2019-02-06T16:26:11.618Z,18.03
2019-02-06T16:29:15.423Z,17.33
2019-02-06T16:32:16.122Z,22.07
2019-02-06T16:35:34.510Z,21.03
2019-02-06T16:38:35.758Z,22.37
2019-02-06T16:41:35.441Z,21.23
2019-02-06T16:44:23.691Z,16.20
2019-02-06T16:47:44.649Z,14.30
2019-02-06T16:50:13.486Z,17.47
2019-02-06T16:53:25.617Z,23.87
2019-02-06T16:56:40.278Z,22.93
2019-02-06T16:59:33.950Z,20.27
2019-02-06T17:02:25.843Z,24.53
2019-02-06T17:05:30.974Z,22.40
2019-02-06T17:08:30.362Z,26.60
2019-02-06T17:11:34.235Z,21.73
2019-02-06T17:14:26.780Z,13.70
2019-02-06T17:17:48.987Z,16.80
2019-02-06T17:21:00.618Z,11.83
2019-02-06T17:24:02.451Z,18.07
2019-02-06T17:27:14.780Z,18.90
2019-02-06T17:30:26.373Z,21.70
2019-02-06T17:33:33.866Z,24.40
2019-02-06T17:36:32.656Z,15.60
2019-02-06T17:39:40.918Z,16.37
2019-02-06T17:42:31.815Z,23.23
2019-02-06T17:45:49.820Z,21.23
2019-02-06T17:48:49.940Z,20.63
2019-02-06T17:52:27.540Z,21.60
2019-02-06T17:55:20.707Z,17.23
2019-02-06T17:57:51.175Z,26.03
2019-02-06T18:00:43.339Z,16.33
2019-02-06T18:03:33.006Z,15.70
2019-02-06T18:06:03.364Z,18.97
2019-02-06T18:08:31.463Z,16.43
2019-02-06T18:10:59.994Z,17.07
2019-02-06T18:13:28.702Z,11.73
2019-02-06T18:15:57.259Z,15.90
2019-02-06T18:18:26.021Z,18.30
2019-02-06T18:20:54.657Z,18.57
2019-02-06T18:23:23.180Z,15.50
2019-02-06T18:25:53.704Z,14.13
2019-02-06T18:28:22.039Z,18.80
2019-02-06T18:30:50.573Z,15.07
2019-02-06T18:33:21.084Z,15.50
2019-02-06T18:35:49.636Z,13.57
2019-02-06T18:38:17.769Z,17.70
2019-02-06T18:40:47.731Z,16.73
2019-02-06T18:43:16.467Z,20.70
2019-02-06T18:45:45.194Z,16.43
2019-02-06T18:48:13.307Z,16.23
2019-02-06T18:50:42.023Z,19.27
2019-02-06T18:53:10.598Z,19.93
2019-02-06T18:55:39.301Z,19.27
2019-02-06T18:58:09.262Z,11.73
2019-02-06T19:00:37.983Z,18.20
2019-02-06T19:03:13.262Z,19.53
2019-02-06T19:05:41.968Z,20.00
2019-02-06T19:08:10.611Z,11.00
2019-02-06T19:10:39.420Z,17.10
2019-02-06T19:13:08.291Z,23.03
2019-02-06T19:15:36.911Z,16.30
2019-02-06T19:18:09.515Z,16.07
2019-02-06T19:20:38.206Z,17.83
2019-02-06T19:23:06.737Z,23.80
2019-02-06T19:25:35.463Z,19.20
2019-02-06T19:28:03.892Z,17.37
2019-02-06T19:30:34.476Z,16.57
2019-02-06T19:33:03.249Z,17.07
2019-02-06T19:35:31.870Z,18.07
2019-02-06T19:38:00.293Z,15.17
2019-02-06T19:40:28.967Z,16.47
2019-02-06T19:43:00.457Z,17.70
2019-02-06T19:45:28.024Z,18.37
2019-02-06T19:47:56.973Z,16.77
2019-02-06T19:50:27.755Z,15.30
2019-02-06T19:52:56.436Z,16.50
2019-02-06T19:55:25.058Z,21.33
2019-02-06T19:57:53.861Z,15.57
2019-02-06T20:00:26.467Z,16.97
2019-02-06T20:02:55.324Z,14.97
2019-02-06T20:05:24.702Z,12.30
2019-02-06T20:07:54.035Z,13.77
2019-02-06T20:10:25.579Z,13.60
2019-02-06T20:12:55.478Z,13.40
2019-02-06T20:15:25.290Z,14.10
2019-02-06T20:17:56.017Z,17.60
2019-02-06T20:20:26.878Z,15.67
2019-02-06T20:22:57.947Z,20.37
2019-02-06T20:25:28.762Z,15.50
2019-02-06T20:27:59.599Z,16.57
2019-02-06T20:30:30.943Z,17.00
2019-02-06T20:33:01.583Z,18.90
2019-02-06T20:35:32.306Z,14.43
2019-02-06T20:38:03.074Z,17.40
2019-02-06T20:40:35.947Z,14.43
2019-02-06T20:43:06.577Z,22.67
2019-02-06T20:45:37.672Z,11.53
2019-02-06T20:48:08.368Z,16.87
2019-02-06T20:50:39.436Z,15.87
2019-02-06T20:53:09.862Z,14.80
2019-02-06T20:55:39.979Z,19.27
2019-02-06T20:58:10.318Z,18.90
2019-02-06T21:00:40.561Z,19.30
2019-02-06T21:03:10.650Z,17.37
2019-02-06T21:05:40.026Z,15.30
2019-02-06T21:08:09.459Z,16.40
2019-02-06T21:10:38.414Z,17.70
2019-02-06T21:13:07.587Z,18.23
2019-02-06T21:15:36.369Z,13.53
2019-02-06T21:18:05.473Z,16.60
2019-02-06T21:20:34.241Z,20.23
2019-02-06T21:23:03.632Z,16.97
2019-02-06T21:25:32.595Z,16.13
2019-02-06T21:28:01.676Z,17.63
2019-02-06T21:30:32.865Z,21.00
2019-02-06T21:33:02.122Z,20.13
2019-02-06T21:35:30.936Z,16.60
2019-02-06T21:38:00.150Z,18.13
2019-02-06T21:40:30.627Z,21.20
2019-02-06T21:42:59.300Z,19.97
2019-02-06T21:45:28.236Z,18.67
2019-02-06T21:47:57.029Z,15.07
2019-02-06T21:50:25.830Z,17.40
2019-02-06T21:52:54.781Z,14.87
2019-02-06T21:55:23.003Z,17.70
2019-02-06T21:57:51.474Z,18.20
2019-02-06T22:00:22.199Z,18.87
2019-02-06T22:02:50.766Z,13.67
2019-02-06T22:05:19.123Z,17.60
2019-02-06T22:07:48.161Z,20.47
2019-02-06T22:10:17.643Z,19.17
2019-02-06T22:12:46.191Z,17.40
2019-02-06T22:15:20.017Z,16.90
2019-02-06T22:17:48.479Z,18.87
2019-02-06T22:20:17.219Z,18.47
2019-02-06T22:22:46.215Z,13.60
2019-02-06T22:25:15.271Z,18.27
2019-02-06T22:27:43.699Z,18.13
2019-02-06T22:30:15.292Z,19.43
2019-02-06T22:32:43.707Z,20.43
2019-02-06T22:35:12.649Z,17.37
2019-02-06T22:37:41.474Z,16.47
2019-02-06T22:40:12.766Z,12.53
2019-02-06T22:42:43.173Z,14.63
2019-02-06T22:45:16.670Z,41.53
2019-02-06T22:47:45.080Z,25.73
2019-02-06T22:50:14.802Z,18.33
2019-02-06T22:52:43.379Z,16.00
2019-02-06T22:55:11.955Z,15.70
2019-02-06T22:57:40.202Z,18.20
2019-02-06T23:01:03.050Z,21.90
2019-02-06T23:03:37.274Z,17.00
2019-02-06T23:06:07.442Z,18.02
2019-02-06T23:08:36.213Z,15.37
2019-02-06T23:11:05.560Z,19.00
2019-02-06T23:13:34.173Z,16.27
2019-02-06T23:16:03.149Z,16.73
2019-02-06T23:18:31.995Z,14.33
2019-02-06T23:21:00.287Z,14.83
2019-02-06T23:23:28.443Z,15.17
2019-02-06T23:25:56.867Z,16.07
2019-02-06T23:28:24.950Z,13.97
2019-02-06T23:30:52.977Z,20.17
2019-02-06T23:33:21.312Z,16.83
2019-02-06T23:35:49.735Z,17.97
2019-02-06T23:38:17.998Z,18.20
2019-02-06T23:40:46.744Z,18.07
2019-02-06T23:43:15.114Z,18.17
2019-02-06T23:45:43.195Z,15.70
2019-02-06T23:48:11.323Z,15.07
2019-02-06T23:50:39.660Z,13.90
2019-02-06T23:53:08.131Z,17.63
2019-02-06T23:55:36.236Z,14.10
2019-02-06T23:58:05.331Z,19.00
